createdAt,value
2024-03-02T00:01:59.701Z,9.82
2024-03-02T00:04:15.350Z,9.95
2024-03-02T00:06:30.414Z,9.87
2024-03-02T00:08:45.419Z,9.93
2024-03-02T00:11:06.386Z,9.88
2024-03-02T00:13:15.465Z,10.00
2024-03-02T00:15:56.433Z,10.00
2024-03-02T00:18:06.234Z,9.96
2024-03-02T00:20:31.448Z,9.94
2024-03-02T00:22:51.525Z,9.71
2024-03-02T00:25:13.322Z,9.97
2024-03-02T00:27:26.436Z,10.11
2024-03-02T00:29:50.350Z,9.88
2024-03-02T00:32:06.531Z,9.70
2024-03-02T00:34:35.275Z,9.77
2024-03-02T00:36:57.381Z,9.80
2024-03-02T00:39:19.547Z,9.89
2024-03-02T00:41:47.821Z,10.14
2024-03-02T00:44:11.405Z,10.16
2024-03-02T00:46:20.741Z,10.14
2024-03-02T00:48:45.368Z,9.93
2024-03-02T00:51:00.427Z,10.00
2024-03-02T00:53:22.322Z,10.07
2024-03-02T00:55:37.460Z,10.14
2024-03-02T00:57:59.374Z,10.21
2024-03-02T01:00:16.539Z,10.29
2024-03-02T01:02:31.371Z,10.30
2024-03-02T01:04:53.293Z,10.46
2024-03-02T01:07:01.777Z,10.48
2024-03-02T01:09:23.400Z,10.43
2024-03-02T01:11:31.650Z,10.34
2024-03-02T01:13:53.706Z,10.47
2024-03-02T01:16:10.326Z,10.41
2024-03-02T01:18:25.715Z,10.30
2024-03-02T01:20:41.277Z,10.35
2024-03-02T01:22:56.733Z,10.35
2024-03-02T01:25:11.332Z,10.33
2024-03-02T01:27:33.288Z,10.40
2024-03-02T01:29:41.655Z,10.51
2024-03-02T01:32:03.292Z,10.37
2024-03-02T01:34:18.269Z,10.26
2024-03-02T01:36:40.328Z,10.22
2024-03-02T01:38:48.685Z,10.27
2024-03-02T01:41:10.300Z,10.38
2024-03-02T01:43:25.318Z,10.39
2024-03-02T01:45:40.668Z,10.26
2024-03-02T01:47:56.292Z,10.22
2024-03-02T01:50:12.581Z,10.20
2024-03-02T01:52:27.313Z,10.08
2024-03-02T01:54:49.364Z,10.23
2024-03-02T01:56:57.671Z,10.27
2024-03-02T01:59:21.299Z,10.24
2024-03-02T02:01:29.758Z,10.22
2024-03-02T02:03:51.333Z,10.24
2024-03-02T02:06:06.501Z,10.29
2024-03-02T02:08:21.622Z,10.12
2024-03-02T02:10:36.258Z,9.96
2024-03-02T02:12:51.441Z,9.75
2024-03-02T02:15:06.368Z,9.73
2024-03-02T02:17:28.306Z,9.65
2024-03-02T02:19:50.519Z,9.58
2024-03-02T02:22:06.420Z,9.60
2024-03-02T02:24:35.305Z,9.78
2024-03-02T02:26:57.446Z,9.78
2024-03-02T02:29:06.751Z,9.90
2024-03-02T02:31:28.330Z,10.06
2024-03-02T02:33:36.414Z,10.00
2024-03-02T02:35:58.427Z,10.05
2024-03-02T02:38:14.263Z,9.99
2024-03-02T02:40:43.279Z,9.74
2024-03-02T02:43:07.396Z,9.80
2024-03-02T02:45:16.795Z,9.92
2024-03-02T02:47:41.395Z,9.87
2024-03-02T02:49:57.321Z,9.89
2024-03-02T02:52:26.309Z,9.98
2024-03-02T02:54:48.313Z,9.95
2024-03-02T02:56:56.513Z,9.95
2024-03-02T02:59:18.321Z,9.79
2024-03-02T03:01:33.382Z,9.68
2024-03-02T03:03:55.366Z,9.62
2024-03-02T03:06:10.318Z,9.54
2024-03-02T03:08:39.419Z,9.56
2024-03-02T03:11:01.315Z,9.76
2024-03-02T03:13:09.560Z,9.86
2024-03-02T03:15:31.335Z,9.72
2024-03-02T03:17:39.487Z,9.48
2024-03-02T03:20:01.397Z,9.45
2024-03-02T03:22:16.857Z,9.30
2024-03-02T03:24:38.279Z,9.54
2024-03-02T03:26:53.295Z,9.71
2024-03-02T03:29:22.301Z,9.69
2024-03-02T03:31:44.259Z,9.78
2024-03-02T03:33:52.461Z,9.91
2024-03-02T03:36:14.314Z,9.68
2024-03-02T03:38:22.374Z,9.78
2024-03-02T03:40:51.258Z,9.69
2024-03-02T03:43:07.001Z,9.60
2024-03-02T03:45:29.258Z,9.75
2024-03-02T03:47:44.524Z,9.70
2024-03-02T03:49:59.373Z,9.71
2024-03-02T03:52:08.064Z,9.73
2024-03-02T03:54:23.337Z,9.63
2024-03-02T03:56:31.575Z,9.62
2024-03-02T03:58:46.504Z,9.73
2024-03-02T04:01:01.672Z,9.77
2024-03-02T04:03:16.401Z,9.74
2024-03-02T04:05:31.601Z,9.73
2024-03-02T04:07:48.602Z,9.63
2024-03-02T04:10:11.348Z,9.52
2024-03-02T04:12:33.268Z,9.45
2024-03-02T04:14:55.316Z,9.38
2024-03-02T04:17:10.367Z,9.55
2024-03-02T04:19:32.246Z,9.79
2024-03-02T04:21:47.469Z,9.80
2024-03-02T04:24:16.240Z,9.51
2024-03-02T04:26:45.223Z,9.59
2024-03-02T04:29:07.391Z,9.71
2024-03-02T04:31:22.470Z,9.58
2024-03-02T04:33:51.388Z,9.53
2024-03-02T04:36:16.335Z,9.42
2024-03-02T04:38:24.658Z,9.31
2024-03-02T04:40:53.335Z,8.99
2024-03-02T04:43:10.733Z,8.89
2024-03-02T04:45:32.413Z,8.87
2024-03-02T04:47:54.341Z,8.80
2024-03-02T04:50:02.329Z,8.75
2024-03-02T04:52:25.372Z,8.58
2024-03-02T04:54:42.360Z,8.50
2024-03-02T04:57:11.213Z,8.49
2024-03-02T04:59:33.327Z,8.52
2024-03-02T05:01:41.390Z,8.60
2024-03-02T05:04:04.506Z,8.50
2024-03-02T05:06:13.544Z,8.61
2024-03-02T05:08:35.233Z,8.46
2024-03-02T05:10:43.368Z,8.44
2024-03-02T05:13:06.641Z,8.41
2024-03-02T05:15:15.351Z,8.44
2024-03-02T05:17:37.251Z,8.44
2024-03-02T05:19:52.232Z,8.43
2024-03-02T05:22:21.207Z,8.48
2024-03-02T05:24:43.310Z,8.52
2024-03-02T05:26:58.541Z,8.50
2024-03-02T05:29:20.297Z,8.57
2024-03-02T05:31:28.586Z,8.54
2024-03-02T05:33:53.937Z,8.59
2024-03-02T05:36:06.009Z,8.73
2024-03-02T05:38:29.346Z,8.65
2024-03-02T05:40:37.396Z,8.72
2024-03-02T05:42:59.469Z,8.82
2024-03-02T05:45:15.287Z,8.95
2024-03-02T05:47:44.302Z,9.07
2024-03-02T05:50:06.307Z,9.31
2024-03-02T05:52:14.349Z,9.49
2024-03-02T05:54:36.282Z,9.58
2024-03-02T05:56:44.538Z,9.72
2024-03-02T05:59:21.429Z,9.78
2024-03-02T06:01:30.027Z,9.79
2024-03-02T06:03:52.277Z,9.64
2024-03-02T06:06:01.009Z,9.65
2024-03-02T06:08:23.518Z,9.88
2024-03-02T06:10:32.363Z,9.91
2024-03-02T06:12:54.242Z,9.96
2024-03-02T06:15:09.330Z,10.05
2024-03-02T06:17:38.224Z,10.14
2024-03-02T06:20:00.361Z,10.05
2024-03-02T06:22:11.606Z,9.99
2024-03-02T06:24:34.333Z,9.94
2024-03-02T06:26:42.793Z,9.94
2024-03-02T06:29:04.353Z,9.98
2024-03-02T06:31:20.371Z,10.14
2024-03-02T06:33:42.297Z,10.27
2024-03-02T06:35:50.617Z,10.13
2024-03-02T06:38:12.228Z,10.31
2024-03-02T06:40:27.218Z,10.56
2024-03-02T06:42:56.324Z,10.48
2024-03-02T06:45:18.347Z,10.67
2024-03-02T06:47:26.429Z,10.58
2024-03-02T06:49:48.309Z,10.69
2024-03-02T06:52:03.340Z,10.69
2024-03-02T06:54:25.296Z,10.73
2024-03-02T06:56:34.634Z,10.97
2024-03-02T06:58:56.296Z,11.21
2024-03-02T07:01:04.543Z,11.11
2024-03-02T07:03:26.389Z,11.15
2024-03-02T07:05:41.250Z,10.86
2024-03-02T07:08:10.212Z,10.82
2024-03-02T07:10:32.249Z,11.16
2024-03-02T07:12:41.437Z,10.93
2024-03-02T07:15:12.421Z,11.11
2024-03-02T07:17:21.417Z,11.29
2024-03-02T07:19:43.305Z,11.31
2024-03-02T07:21:51.386Z,11.36
2024-03-02T07:24:14.322Z,11.43
2024-03-02T07:28:50.294Z,11.61
2024-03-02T07:31:08.573Z,11.55
2024-03-02T07:33:30.201Z,11.75
2024-03-02T07:35:45.320Z,11.73
2024-03-02T07:38:14.272Z,11.90
2024-03-02T07:40:36.328Z,12.00
2024-03-02T07:42:46.665Z,12.27
2024-03-02T07:45:08.231Z,12.23
2024-03-02T07:47:17.362Z,12.20
2024-03-02T07:49:39.271Z,12.05
2024-03-02T07:51:48.308Z,12.11
2024-03-02T07:54:10.204Z,12.58
2024-03-02T07:56:23.504Z,12.69
2024-03-02T07:58:45.273Z,12.91
2024-03-02T08:01:01.402Z,12.96
2024-03-02T08:03:30.328Z,12.98
2024-03-02T08:05:52.233Z,13.08
2024-03-02T08:08:01.464Z,13.24
2024-03-02T08:10:24.400Z,13.20
2024-03-02T08:12:33.387Z,13.36
2024-03-02T08:14:55.378Z,13.27
2024-03-02T08:17:04.853Z,13.12
2024-03-02T08:19:26.278Z,13.43
2024-03-02T08:21:43.224Z,13.67
2024-03-02T08:24:12.249Z,13.67
2024-03-02T08:26:36.217Z,13.74
2024-03-02T08:28:51.382Z,13.79
2024-03-02T08:31:06.271Z,13.68
2024-03-02T08:33:21.403Z,13.44
2024-03-02T08:35:36.242Z,13.65
2024-03-02T08:37:58.327Z,13.34
2024-03-02T08:40:08.586Z,13.26
2024-03-02T08:42:30.312Z,13.16
2024-03-02T08:44:45.357Z,13.43
2024-03-02T08:47:01.608Z,13.49
2024-03-02T08:49:17.260Z,13.21
2024-03-02T08:51:33.193Z,13.04
2024-03-02T08:53:48.284Z,12.91
2024-03-02T08:56:03.551Z,13.14
2024-03-02T08:58:18.216Z,13.14
2024-03-02T09:00:40.423Z,12.97
2024-03-02T09:02:48.952Z,13.20
2024-03-02T09:05:11.267Z,13.02
2024-03-02T09:07:26.231Z,12.87
2024-03-02T09:09:48.231Z,12.67
2024-03-02T09:11:59.241Z,12.18
2024-03-02T09:14:22.212Z,12.40
2024-03-02T09:16:38.254Z,12.63
2024-03-02T09:18:53.379Z,12.82
2024-03-02T09:21:08.237Z,12.98
2024-03-02T09:23:23.321Z,12.80
2024-03-02T09:25:38.256Z,13.08
2024-03-02T09:27:53.354Z,13.25
2024-03-02T09:30:08.197Z,13.34
2024-03-02T09:32:24.925Z,12.81
2024-03-02T09:34:47.278Z,11.89
2024-03-02T09:36:55.317Z,12.31
2024-03-02T09:39:17.269Z,12.14
2024-03-02T09:41:34.266Z,11.78
2024-03-02T09:43:56.290Z,12.28
2024-03-02T09:46:05.116Z,12.57
2024-03-02T09:48:28.254Z,12.49
2024-03-02T09:50:44.240Z,12.71
2024-03-02T09:53:14.242Z,12.55
2024-03-02T09:55:36.279Z,12.70
2024-03-02T09:57:44.333Z,12.95
2024-03-02T10:00:06.309Z,12.52
2024-03-02T10:02:15.322Z,12.46
2024-03-02T10:04:36.991Z,12.28
2024-03-02T10:06:52.282Z,12.31
2024-03-02T10:09:09.228Z,12.14
2024-03-02T10:11:30.901Z,12.47
2024-03-02T10:13:53.193Z,11.87
2024-03-02T10:16:13.266Z,12.49
2024-03-02T10:18:42.299Z,12.24
2024-03-02T10:20:50.566Z,12.58
2024-03-02T10:23:25.220Z,12.71
2024-03-02T10:25:47.819Z,12.97
2024-03-02T10:28:17.213Z,13.32
2024-03-02T10:30:25.593Z,13.19
2024-03-02T10:32:48.242Z,13.33
2024-03-02T10:35:03.263Z,13.09
2024-03-02T10:37:19.484Z,13.43
2024-03-02T10:39:34.215Z,13.49
2024-03-02T10:41:56.192Z,13.90
2024-03-02T10:44:25.231Z,13.51
2024-03-02T10:46:47.646Z,13.41
2024-03-02T10:48:56.411Z,14.01
2024-03-02T10:51:18.192Z,14.40
2024-03-02T10:53:34.247Z,14.48
2024-03-02T10:56:12.344Z,14.90
2024-03-02T10:58:39.332Z,15.17
2024-03-02T11:01:01.305Z,15.23
2024-03-02T11:03:24.220Z,15.30
2024-03-02T11:05:55.268Z,15.40
2024-03-02T11:08:20.601Z,15.27
2024-03-02T11:10:45.434Z,15.21
2024-03-02T11:13:10.260Z,15.33
2024-03-02T11:15:34.312Z,15.15
2024-03-02T11:17:48.892Z,14.88
2024-03-02T11:20:06.039Z,15.03
2024-03-02T11:22:23.159Z,15.23
2024-03-02T11:24:41.289Z,15.32
2024-03-02T11:26:52.532Z,15.39
2024-03-02T11:29:15.192Z,15.02
2024-03-02T11:31:23.610Z,15.42
2024-03-02T11:33:45.298Z,15.34
2024-03-02T11:36:00.284Z,15.58
2024-03-02T11:38:15.289Z,15.77
2024-03-02T11:40:30.236Z,15.86
2024-03-02T11:42:46.331Z,15.53
2024-03-02T11:45:04.232Z,15.49
2024-03-02T11:47:21.363Z,15.77
2024-03-02T11:49:55.253Z,16.02
2024-03-02T11:52:12.419Z,16.19
2024-03-02T11:54:38.238Z,16.30
2024-03-02T11:56:46.284Z,16.46
2024-03-02T11:59:09.196Z,16.59
2024-03-02T12:01:25.453Z,16.70
2024-03-02T12:03:54.260Z,16.61
2024-03-02T12:06:23.184Z,16.50
2024-03-02T12:08:46.187Z,16.74
2024-03-02T12:11:09.507Z,16.86
2024-03-02T12:13:31.180Z,16.96
2024-03-02T12:15:44.397Z,17.02
2024-03-02T12:18:08.221Z,17.08
2024-03-02T12:20:27.165Z,17.03
2024-03-02T12:22:56.202Z,16.93
2024-03-02T12:25:18.215Z,16.86
2024-03-02T12:27:26.270Z,16.77
2024-03-02T12:29:48.248Z,16.67
2024-03-02T12:31:57.296Z,16.78
2024-03-02T12:34:24.405Z,16.43
2024-03-02T12:36:33.335Z,16.07
2024-03-02T12:38:48.709Z,15.67
2024-03-02T12:41:04.417Z,15.75
2024-03-02T12:43:20.375Z,15.99
2024-03-02T12:45:28.647Z,15.96
2024-03-02T12:47:51.192Z,16.01
2024-03-02T12:50:00.421Z,16.00
2024-03-02T12:52:22.943Z,15.89
2024-03-02T12:54:38.267Z,16.04
2024-03-02T12:56:55.225Z,16.06
2024-03-02T12:59:10.198Z,16.29
2024-03-02T13:01:25.560Z,16.31
2024-03-02T13:03:44.277Z,16.22
2024-03-02T13:05:59.775Z,16.49
2024-03-02T13:08:15.200Z,16.77
2024-03-02T13:10:37.199Z,16.88
2024-03-02T13:12:46.360Z,16.62
2024-03-02T13:15:08.234Z,16.41
2024-03-02T13:17:23.341Z,16.31
2024-03-02T13:19:38.396Z,16.57
2024-03-02T13:21:53.224Z,16.65
2024-03-02T13:24:15.195Z,16.72
2024-03-02T13:26:23.566Z,16.61
2024-03-02T13:28:45.260Z,16.65
2024-03-02T13:30:53.824Z,16.37
2024-03-02T13:33:16.305Z,16.19
2024-03-02T13:35:24.886Z,16.02
2024-03-02T13:37:47.153Z,16.00
2024-03-02T13:40:02.279Z,16.04
2024-03-02T13:42:18.342Z,16.15
2024-03-02T13:44:33.410Z,16.14
2024-03-02T13:46:48.325Z,16.07
2024-03-02T13:49:03.552Z,16.02
2024-03-02T13:51:18.342Z,15.96
2024-03-02T13:53:33.238Z,16.05
2024-03-02T13:55:48.447Z,15.94
2024-03-02T13:58:04.391Z,16.13
2024-03-02T14:00:20.365Z,16.29
2024-03-02T14:02:35.212Z,16.33
2024-03-02T14:05:04.159Z,16.47
2024-03-02T14:07:33.237Z,16.83
2024-03-02T14:09:55.272Z,16.90
2024-03-02T14:12:04.461Z,16.67
2024-03-02T14:14:26.189Z,16.75
2024-03-02T14:16:35.354Z,16.88
2024-03-02T14:18:57.374Z,16.60
2024-03-02T14:21:13.234Z,16.62
2024-03-02T14:23:42.262Z,16.87
2024-03-02T14:26:07.401Z,16.99
2024-03-02T14:28:36.891Z,16.97
2024-03-02T14:30:59.439Z,17.13
2024-03-02T14:33:14.977Z,17.07
2024-03-02T14:35:30.248Z,17.08
2024-03-02T14:37:52.326Z,17.01
2024-03-02T14:40:07.301Z,16.90
2024-03-02T14:42:29.197Z,16.95
2024-03-02T14:44:37.579Z,17.05
2024-03-02T14:47:03.204Z,17.06
2024-03-02T14:49:12.154Z,16.85
2024-03-02T14:51:34.222Z,16.94
2024-03-02T14:53:50.589Z,16.93
2024-03-02T14:56:06.241Z,16.92
2024-03-02T14:58:21.328Z,16.85
2024-03-02T15:00:36.345Z,16.81
2024-03-02T15:02:51.693Z,16.86
2024-03-02T15:05:20.300Z,16.59
2024-03-02T15:07:49.226Z,16.57
2024-03-02T15:10:11.459Z,16.37
2024-03-02T15:12:26.271Z,16.29
2024-03-02T15:14:55.160Z,16.26
2024-03-02T15:17:17.253Z,16.33
2024-03-02T15:19:25.373Z,16.25
2024-03-02T15:21:47.242Z,16.32
2024-03-02T15:23:55.259Z,16.26
2024-03-02T15:26:17.241Z,16.23
2024-03-02T15:28:25.315Z,16.23
2024-03-02T15:30:47.201Z,16.23
2024-03-02T15:32:55.351Z,16.20
2024-03-02T15:35:18.213Z,16.35
2024-03-02T15:37:34.201Z,15.63
2024-03-02T15:39:49.912Z,15.37
2024-03-02T15:42:13.160Z,15.31
2024-03-02T15:44:21.555Z,14.86
2024-03-02T15:46:43.240Z,14.02
2024-03-02T15:48:51.782Z,13.77
2024-03-02T15:51:13.203Z,14.09
2024-03-02T15:53:28.236Z,14.14
2024-03-02T15:55:43.279Z,14.10
2024-03-02T15:57:58.267Z,13.84
2024-03-02T16:00:14.352Z,13.78
2024-03-02T16:02:29.197Z,13.67
2024-03-02T16:04:51.295Z,13.63
2024-03-02T16:06:59.767Z,13.44
2024-03-02T16:09:22.179Z,13.40
2024-03-02T16:11:37.326Z,12.93
2024-03-02T16:13:52.662Z,12.91
2024-03-02T16:16:07.303Z,12.39
2024-03-02T16:18:29.263Z,12.59
2024-03-02T16:20:44.301Z,12.51
2024-03-02T16:22:59.308Z,12.48
2024-03-02T16:25:14.319Z,12.35
2024-03-02T16:27:29.477Z,12.45
2024-03-02T16:29:45.178Z,12.46
2024-03-02T16:32:02.008Z,12.57
2024-03-02T16:34:18.268Z,12.64
2024-03-02T16:36:36.099Z,12.71
2024-03-02T16:38:58.270Z,12.76
2024-03-02T16:41:06.326Z,12.64
2024-03-02T16:43:28.194Z,12.66
2024-03-02T16:45:36.454Z,12.66
2024-03-02T16:47:59.182Z,12.65
2024-03-02T16:50:19.359Z,12.58
2024-03-02T16:52:48.161Z,12.55
2024-03-02T16:55:11.207Z,12.38
2024-03-02T16:57:20.294Z,12.33
2024-03-02T16:59:42.164Z,12.53
2024-03-02T17:01:57.210Z,12.52
2024-03-02T17:04:26.244Z,12.54
2024-03-02T17:06:48.303Z,12.45
2024-03-02T17:08:56.318Z,12.57
2024-03-02T17:11:18.348Z,12.53
2024-03-02T17:13:34.222Z,12.54
2024-03-02T17:15:57.270Z,12.42
2024-03-02T17:18:12.306Z,12.27
2024-03-02T17:20:27.155Z,12.22
2024-03-02T17:22:49.257Z,12.30
2024-03-02T17:24:57.574Z,12.29
2024-03-02T17:27:19.171Z,12.48
2024-03-02T17:29:34.298Z,12.46
2024-03-02T17:31:49.418Z,12.45
2024-03-02T17:34:04.448Z,12.51
2024-03-02T17:36:26.219Z,12.38
2024-03-02T17:38:41.251Z,12.31
2024-03-02T17:41:04.229Z,12.18
2024-03-02T17:43:13.385Z,12.07
2024-03-02T17:45:35.349Z,11.98
2024-03-02T17:47:43.597Z,11.89
2024-03-02T17:50:05.201Z,11.85
2024-03-02T17:52:34.557Z,11.84
2024-03-02T17:55:03.481Z,11.76
2024-03-02T17:57:32.352Z,11.68
2024-03-02T17:59:54.411Z,11.56
2024-03-02T18:02:04.061Z,11.40
2024-03-02T18:04:33.237Z,11.22
2024-03-02T18:07:06.251Z,11.28
2024-03-02T18:09:28.305Z,10.98
2024-03-02T18:11:36.445Z,10.84
2024-03-02T18:13:59.138Z,10.97
2024-03-02T18:16:16.497Z,11.05
2024-03-02T18:18:45.207Z,11.21
2024-03-02T18:21:07.276Z,11.25
2024-03-02T18:23:16.411Z,11.22
2024-03-02T18:25:38.120Z,11.31
2024-03-02T18:27:53.446Z,11.35
2024-03-02T18:30:18.194Z,11.50
2024-03-02T18:32:34.154Z,11.58
2024-03-02T18:34:49.259Z,11.49
2024-03-02T18:37:11.371Z,11.43
2024-03-02T18:39:19.574Z,11.20
2024-03-02T18:41:41.305Z,11.18
2024-03-02T18:44:11.238Z,11.16
2024-03-02T18:46:40.206Z,11.14
2024-03-02T18:48:55.211Z,11.19
2024-03-02T18:51:10.644Z,11.18
2024-03-02T18:53:32.921Z,11.05
2024-03-02T18:55:48.237Z,10.98
2024-03-02T18:58:11.304Z,10.86
2024-03-02T19:00:20.176Z,10.71
2024-03-02T19:02:42.543Z,10.66
2024-03-02T19:04:59.161Z,10.59
2024-03-02T19:07:21.220Z,10.52
2024-03-02T19:09:29.644Z,10.50
2024-03-02T19:11:51.418Z,10.55
2024-03-02T19:13:59.496Z,10.51
2024-03-02T19:16:25.235Z,10.49
2024-03-02T19:18:40.266Z,10.60
2024-03-02T19:20:55.262Z,10.97
2024-03-02T19:23:14.793Z,11.16
2024-03-02T19:25:33.333Z,11.21
2024-03-02T19:27:48.144Z,11.37
2024-03-02T19:30:12.460Z,11.43
2024-03-02T19:32:23.222Z,11.36
2024-03-02T19:34:45.225Z,11.27
2024-03-02T19:37:00.276Z,11.21
2024-03-02T19:39:17.097Z,11.16
2024-03-02T19:41:32.403Z,11.07
2024-03-02T19:43:54.109Z,10.97
2024-03-02T19:46:02.708Z,11.03
2024-03-02T19:48:18.511Z,11.14
2024-03-02T19:50:33.344Z,11.27
2024-03-02T19:52:48.133Z,11.24
2024-03-02T19:55:03.277Z,11.22
2024-03-02T19:57:32.335Z,11.19
2024-03-02T19:59:55.224Z,11.37
2024-03-02T20:02:03.584Z,11.55
2024-03-02T20:04:32.287Z,11.62
2024-03-02T20:07:01.141Z,11.53
2024-03-02T20:09:23.186Z,11.58
2024-03-02T20:11:39.337Z,11.25
2024-03-02T20:13:54.256Z,11.00
2024-03-02T20:16:09.183Z,10.90
2024-03-02T20:18:24.359Z,10.93
2024-03-02T20:20:39.135Z,10.83
2024-03-02T20:22:54.338Z,10.78
2024-03-02T20:25:12.328Z,10.67
2024-03-02T20:27:27.880Z,10.55
2024-03-02T20:29:43.124Z,10.42
2024-03-02T20:32:06.264Z,10.49
2024-03-02T20:34:23.246Z,10.38
2024-03-02T20:36:41.471Z,10.37
2024-03-02T20:38:57.273Z,10.34
2024-03-02T20:41:12.266Z,10.34
2024-03-02T20:43:27.191Z,10.33
2024-03-02T20:45:37.103Z,10.25
2024-03-02T20:47:59.221Z,10.30
2024-03-02T20:50:08.177Z,10.30
2024-03-02T20:52:30.345Z,10.30
2024-03-02T20:54:38.663Z,10.26
2024-03-02T20:57:00.245Z,10.14
2024-03-02T20:59:16.326Z,10.19
2024-03-02T21:01:31.326Z,10.25
2024-03-02T21:03:48.333Z,10.28
2024-03-02T21:06:17.257Z,10.25
2024-03-02T21:08:39.202Z,10.33
2024-03-02T21:10:55.191Z,10.37
2024-03-02T21:13:24.226Z,10.39
2024-03-02T21:15:46.173Z,10.46
2024-03-02T21:17:54.438Z,10.54
2024-03-02T21:20:16.180Z,10.62
2024-03-02T21:22:24.416Z,10.67
2024-03-02T21:24:46.134Z,10.75
2024-03-02T21:27:01.202Z,10.76
2024-03-02T21:30:01.274Z,10.87
2024-03-02T21:32:18.280Z,10.83
2024-03-02T21:34:47.344Z,10.94
2024-03-02T21:37:12.301Z,11.00
2024-03-02T21:39:31.843Z,10.95
2024-03-02T21:41:59.409Z,10.52
2024-03-02T21:44:19.124Z,10.71
2024-03-02T21:46:45.495Z,10.92
2024-03-02T21:48:54.495Z,11.08
2024-03-02T21:51:23.258Z,11.08
2024-03-02T21:53:49.356Z,10.99
2024-03-02T21:56:18.301Z,11.02
2024-03-02T21:58:41.958Z,11.28
2024-03-02T22:00:50.831Z,11.41
2024-03-02T22:06:22.498Z,11.34
2024-03-02T22:08:37.205Z,11.30
2024-03-02T22:10:52.297Z,11.36
2024-03-02T22:13:10.297Z,11.40
2024-03-02T22:15:25.135Z,11.36
2024-03-02T22:17:33.316Z,11.39
2024-03-02T22:19:55.185Z,11.18
2024-03-02T22:22:04.640Z,10.40
2024-03-02T22:24:26.179Z,10.39
2024-03-02T22:26:34.411Z,10.54
2024-03-02T22:28:56.268Z,10.81
2024-03-02T22:31:11.201Z,11.29
2024-03-02T22:33:33.325Z,11.35
2024-03-02T22:35:49.178Z,11.37
2024-03-02T22:38:19.121Z,11.54
2024-03-02T22:40:41.154Z,11.67
2024-03-02T22:42:49.258Z,11.41
2024-03-02T22:45:12.342Z,11.48
2024-03-02T22:47:21.209Z,11.52
2024-03-02T22:49:43.090Z,11.61
2024-03-02T22:51:58.259Z,11.77
2024-03-02T22:54:20.195Z,11.68
2024-03-02T22:56:28.331Z,11.42
2024-03-02T22:58:50.165Z,11.42
2024-03-02T23:01:02.783Z,11.27
2024-03-02T23:03:26.157Z,11.21
2024-03-02T23:05:42.247Z,10.88
2024-03-02T23:08:11.312Z,11.06
2024-03-02T23:10:33.179Z,11.50
2024-03-02T23:12:50.295Z,11.48
2024-03-02T23:15:05.361Z,11.46
2024-03-02T23:17:20.253Z,11.60
2024-03-02T23:19:35.326Z,11.75
2024-03-02T23:21:50.273Z,11.70
2024-03-02T23:23:59.402Z,11.86
2024-03-02T23:26:21.364Z,11.71
2024-03-02T23:28:29.501Z,11.81
2024-03-02T23:30:51.289Z,12.13
2024-03-02T23:33:00.414Z,12.14
2024-03-02T23:35:22.331Z,12.20
2024-03-02T23:37:38.213Z,12.12
2024-03-02T23:40:13.143Z,11.92
2024-03-02T23:42:36.223Z,11.84
2024-03-02T23:44:45.208Z,12.11
2024-03-02T23:47:07.175Z,12.30
2024-03-02T23:49:31.232Z,12.24
2024-03-02T23:52:00.220Z,12.34
2024-03-02T23:54:22.222Z,12.25
2024-03-02T23:56:32.114Z,12.15
2024-03-02T23:58:54.204Z,12.35
